Puropanmaru No.3 — JD3322 — position and weather

sailwx.info

Track history (hours):
 
Tides and Currents Weather Stations Pressure Air Temp Water Temp Dewpoint Dewpoint Depression Visibility Wind Speed Wind Dir Waves Ship Positions

Puropanmaru No.3

Last reported at 2016-Dec-03 12:20 UTC. Time now 2016-Dec-05 18:39 UTC.
Position N 35°07' E 139°42'.

Length 68 m; draft 4.4 m.

Type: Tanker. MMSI: 431003365.

Date/timePositionNaut miles runAvg speedWind from/ knotsBaromVisibWave heightAir tempDewpointWater temp
2016-Dec-03 12:20N 35°07' E 139°42'1012.3
2016-Dec-03 11:33N 35°17' E 139°45'1110.7
2016-Dec-03 10:33N 35°27' E 139°47'11 0.4
2016-Dec-02 07:19N 35°32' E 139°59'1012.7
2016-Dec-02 06:33N 35°27' E 139°49'26110.8
2016-Dec-01 06:18N 34°05' E 134°48'253 5.7
2016-Nov-29 09:33N 35°10' E 139°45'1211.9
2016-Nov-29 08:33N 35°22' E 139°42'1312.7
2016-Nov-29 07:33N 35°30' E 139°54'4 0.9
2016-Nov-29 02:26N 35°31' E 139°59'3 3.3
2016-Nov-29 01:26N 35°29' E 139°56'0 0.4
2016-Nov-29 00:21N 35°29' E 139°55'4 4.9
2016-Nov-28 23:32N 35°31' E 139°51'0 0.0
2016-Nov-28 22:32N 35°31' E 139°51'0 0.0
2016-Nov-28 21:32N 35°31' E 139°51'0 0.0
2016-Nov-28 20:32N 35°31' E 139°51'0 0.0
2016-Nov-28 19:32N 35°31' E 139°51'0 0.0
2016-Nov-28 18:32N 35°31' E 139°51'0 0.0
2016-Nov-28 17:32N 35°31' E 139°51'0 0.0
2016-Nov-28 16:32N 35°31' E 139°51'0 0.0
2016-Nov-28 15:32N 35°31' E 139°51'0 0.0
2016-Nov-28 14:32N 35°31' E 139°51'0 0.0
2016-Nov-28 13:32N 35°31' E 139°51'0 0.0
2016-Nov-28 12:32N 35°31' E 139°51'0 0.0
2016-Nov-28 11:29N 35°31' E 139°51'0 0.0
2016-Nov-28 10:32N 35°31' E 139°51'0 0.0
2016-Nov-28 09:31N 35°31' E 139°51'0 0.0
2016-Nov-28 08:31N 35°31' E 139°51'0 0.0
2016-Nov-28 07:32N 35°31' E 139°51'7 7.0
2016-Nov-28 06:31N 35°32' E 139°59'1212.5
2016-Nov-28 05:33N 35°25' E 139°47'1111.4
2016-Nov-28 04:33N 35°14' E 139°47'  
2016-Nov-25 07:11N 35°15' E 139°46'812.5
2016-Nov-25 06:33N 35°23' E 139°42'1212.5
2016-Nov-25 05:34N 35°31' E 139°54'6 0.9
2016-Nov-24 22:33N 35°32' E 140°01'6 5.9
2016-Nov-24 21:33N 35°29' E 139°55'0 0.0
2016-Nov-24 20:32N 35°29' E 139°55'0 0.0
2016-Nov-24 19:26N 35°29' E 139°55'0 0.0
2016-Nov-24 18:31N 35°29' E 139°55'0 0.0
2016-Nov-24 17:32N 35°29' E 139°55'0 0.0
2016-Nov-24 16:31N 35°29' E 139°55'0 0.0
2016-Nov-24 15:32N 35°29' E 139°55'0 0.0
2016-Nov-24 14:32N 35°29' E 139°55'0 0.0
2016-Nov-24 13:31N 35°29' E 139°55'0 0.0
2016-Nov-24 12:32N 35°29' E 139°55'0 0.1
2016-Nov-24 11:34N 35°29' E 139°56'0 0.0
2016-Nov-24 10:34N 35°29' E 139°56'0 0.0
2016-Nov-24 09:34N 35°29' E 139°55'0 0.0
2016-Nov-24 08:33N 35°29' E 139°55'0 0.0
2016-Nov-24 07:33N 35°29' E 139°55'0 0.0
2016-Nov-24 06:33N 35°29' E 139°56'0 0.0
2016-Nov-24 05:33N 35°29' E 139°56'0 0.0
2016-Nov-24 04:33N 35°29' E 139°56'0 0.0
2016-Nov-24 03:33N 35°29' E 139°56'0 0.0
2016-Nov-24 02:33N 35°29' E 139°56'0 0.0
2016-Nov-24 01:33N 35°29' E 139°55'3 2.3
2016-Nov-24 00:29N 35°30' E 139°58'3 2.8
2016-Nov-23 23:33N 35°29' E 139°55'0 0.0
2016-Nov-23 22:33N 35°29' E 139°55'0 0.0
2016-Nov-23 21:33N 35°29' E 139°55'0 0.0
2016-Nov-23 20:33N 35°29' E 139°55'0 0.0
2016-Nov-23 19:33N 35°29' E 139°55'0 0.0
2016-Nov-23 18:33N 35°29' E 139°55'0 0.0
2016-Nov-23 17:33N 35°29' E 139°55'0 0.0
2016-Nov-23 16:33N 35°29' E 139°55'0 0.0
2016-Nov-23 15:33N 35°29' E 139°55'0 0.0
2016-Nov-23 14:33N 35°29' E 139°55'0 0.0
2016-Nov-23 13:33N 35°29' E 139°55'0 0.0
2016-Nov-23 12:33N 35°29' E 139°55'  
Track history (hours):
 
Tides and Currents Weather Stations Pressure Air Temp Water Temp Dewpoint Dewpoint Depression Visibility Wind Speed Wind Dir Waves Ship Positions

Puropanmaru No.3

Last reported at 2016-Dec-03 12:20 UTC. Time now 2016-Dec-05 18:39 UTC.
Position N 35°07' E 139°42'.

Length 68 m; draft 4.4 m.

Type: Tanker. MMSI: 431003365.

Date/timePositionNaut miles runAvg speedWind from/ knotsBaromVisibWave heightAir tempDewpointWater temp
2016-Dec-03 12:20N 35°07' E 139°42'1012.3
2016-Dec-03 11:33N 35°17' E 139°45'1110.7
2016-Dec-03 10:33N 35°27' E 139°47'11 0.4
2016-Dec-02 07:19N 35°32' E 139°59'1012.7
2016-Dec-02 06:33N 35°27' E 139°49'26110.8
2016-Dec-01 06:18N 34°05' E 134°48'253 5.7
2016-Nov-29 09:33N 35°10' E 139°45'1211.9
2016-Nov-29 08:33N 35°22' E 139°42'1312.7
2016-Nov-29 07:33N 35°30' E 139°54'4 0.9
2016-Nov-29 02:26N 35°31' E 139°59'3 3.3
2016-Nov-29 01:26N 35°29' E 139°56'0 0.4
2016-Nov-29 00:21N 35°29' E 139°55'4 4.9
2016-Nov-28 23:32N 35°31' E 139°51'0 0.0
2016-Nov-28 22:32N 35°31' E 139°51'0 0.0
2016-Nov-28 21:32N 35°31' E 139°51'0 0.0
2016-Nov-28 20:32N 35°31' E 139°51'0 0.0
2016-Nov-28 19:32N 35°31' E 139°51'0 0.0
2016-Nov-28 18:32N 35°31' E 139°51'0 0.0
2016-Nov-28 17:32N 35°31' E 139°51'0 0.0
2016-Nov-28 16:32N 35°31' E 139°51'0 0.0
2016-Nov-28 15:32N 35°31' E 139°51'0 0.0
2016-Nov-28 14:32N 35°31' E 139°51'0 0.0
2016-Nov-28 13:32N 35°31' E 139°51'0 0.0
2016-Nov-28 12:32N 35°31' E 139°51'0 0.0
2016-Nov-28 11:29N 35°31' E 139°51'0 0.0
2016-Nov-28 10:32N 35°31' E 139°51'0 0.0
2016-Nov-28 09:31N 35°31' E 139°51'0 0.0
2016-Nov-28 08:31N 35°31' E 139°51'0 0.0
2016-Nov-28 07:32N 35°31' E 139°51'7 7.0
2016-Nov-28 06:31N 35°32' E 139°59'1212.5
2016-Nov-28 05:33N 35°25' E 139°47'1111.4
2016-Nov-28 04:33N 35°14' E 139°47'  
2016-Nov-25 07:11N 35°15' E 139°46'812.5
2016-Nov-25 06:33N 35°23' E 139°42'1212.5
2016-Nov-25 05:34N 35°31' E 139°54'6 0.9
2016-Nov-24 22:33N 35°32' E 140°01'6 5.9
2016-Nov-24 21:33N 35°29' E 139°55'0 0.0
2016-Nov-24 20:32N 35°29' E 139°55'0 0.0
2016-Nov-24 19:26N 35°29' E 139°55'0 0.0
2016-Nov-24 18:31N 35°29' E 139°55'0 0.0
2016-Nov-24 17:32N 35°29' E 139°55'0 0.0
2016-Nov-24 16:31N 35°29' E 139°55'0 0.0
2016-Nov-24 15:32N 35°29' E 139°55'0 0.0
2016-Nov-24 14:32N 35°29' E 139°55'0 0.0
2016-Nov-24 13:31N 35°29' E 139°55'0 0.0
2016-Nov-24 12:32N 35°29' E 139°55'0 0.1
2016-Nov-24 11:34N 35°29' E 139°56'0 0.0
2016-Nov-24 10:34N 35°29' E 139°56'0 0.0
2016-Nov-24 09:34N 35°29' E 139°55'0 0.0
2016-Nov-24 08:33N 35°29' E 139°55'0 0.0
2016-Nov-24 07:33N 35°29' E 139°55'0 0.0
2016-Nov-24 06:33N 35°29' E 139°56'0 0.0
2016-Nov-24 05:33N 35°29' E 139°56'0 0.0
2016-Nov-24 04:33N 35°29' E 139°56'0 0.0
2016-Nov-24 03:33N 35°29' E 139°56'0 0.0
2016-Nov-24 02:33N 35°29' E 139°56'0 0.0
2016-Nov-24 01:33N 35°29' E 139°55'3 2.3
2016-Nov-24 00:29N 35°30' E 139°58'3 2.8
2016-Nov-23 23:33N 35°29' E 139°55'0 0.0
2016-Nov-23 22:33N 35°29' E 139°55'0 0.0
2016-Nov-23 21:33N 35°29' E 139°55'0 0.0
2016-Nov-23 20:33N 35°29' E 139°55'0 0.0
2016-Nov-23 19:33N 35°29' E 139°55'0 0.0
2016-Nov-23 18:33N 35°29' E 139°55'0 0.0
2016-Nov-23 17:33N 35°29' E 139°55'0 0.0
2016-Nov-23 16:33N 35°29' E 139°55'0 0.0
2016-Nov-23 15:33N 35°29' E 139°55'0 0.0
2016-Nov-23 14:33N 35°29' E 139°55'0 0.0
2016-Nov-23 13:33N 35°29' E 139°55'0 0.0
2016-Nov-23 12:33N 35°29' E 139°55'  

Dump ship's entire track history